Time;durP1;ratioP1;P1;durP2;ratioP2;P2;SDS_P1;SDS_P2;PMS_P1;PMS_P2;Temp;Humidity;BMP_temperature;BMP_pressure;BME280_temperature;BME280_humidity;BME280_pressure;Samples;Min_cycle;Max_cycle;Signal;HPM_P1;HPM_P2
2021/05/09 00:01:05;;;;;;;5.67;2.30;;;10.00;99.90;;;;;;5066756;28;20211;-68
2021/05/09 00:03:31;;;;;;;4.80;1.47;;;9.90;99.90;;;;;;5066632;28;20199;-68
2021/05/09 00:05:57;;;;;;;5.13;2.28;;;9.80;99.90;;;;;;5083999;28;20175;-68
2021/05/09 00:08:23;;;;;;;3.90;1.15;;;9.70;99.90;;;;;;5086515;28;20317;-67
2021/05/09 00:10:49;;;;;;;4.10;1.63;;;9.70;99.90;;;;;;5070119;28;20228;-68
2021/05/09 00:13:14;;;;;;;4.90;1.20;;;9.70;99.90;;;;;;5066498;28;20317;-68
2021/05/09 00:15:40;;;;;;;4.13;1.30;;;9.60;99.90;;;;;;5080527;28;20173;-68
2021/05/09 00:18:06;;;;;;;4.10;1.57;;;9.60;99.90;;;;;;5079982;28;20301;-68
2021/05/09 00:20:32;;;;;;;4.43;1.40;;;9.60;99.90;;;;;;5053801;28;20255;-68
2021/05/09 00:22:57;;;;;;;5.03;1.53;;;9.50;99.90;;;;;;5060566;28;20442;-68
2021/05/09 00:25:23;;;;;;;4.57;2.37;;;9.50;99.90;;;;;;5077312;28;20432;-68
2021/05/09 00:27:49;;;;;;;3.90;1.30;;;9.50;99.90;;;;;;5089628;28;20211;-68
2021/05/09 00:30:16;;;;;;;4.43;1.33;;;9.40;99.90;;;;;;5079919;28;20286;-68
2021/05/09 00:32:43;;;;;;;6.15;2.40;;;9.30;99.90;;;;;;5074917;28;20353;-68
2021/05/09 00:35:09;;;;;;;6.38;1.58;;;9.40;99.90;;;;;;5081690;28;20177;-68
2021/05/09 00:37:35;;;;;;;5.55;1.58;;;9.30;99.90;;;;;;5071145;28;20160;-68
2021/05/09 00:40:01;;;;;;;4.67;1.30;;;9.40;99.90;;;;;;5089954;28;20472;-68
2021/05/09 00:42:26;;;;;;;4.40;1.60;;;9.30;99.90;;;;;;5089643;28;20228;-69
2021/05/09 00:44:52;;;;;;;4.20;1.23;;;9.40;99.90;;;;;;5069933;28;20173;-68
2021/05/09 00:47:18;;;;;;;4.57;1.13;;;9.40;99.90;;;;;;5080291;28;20185;-68
2021/05/09 00:49:43;;;;;;;5.17;1.63;;;9.40;99.90;;;;;;5069551;28;20193;-67
2021/05/09 00:52:11;;;;;;;5.00;1.67;;;9.40;99.90;;;;;;5082748;28;20173;-68
2021/05/09 00:54:58;;;;;;;5.35;1.60;;;9.30;99.90;;;;;;5089468;28;20161;-68
2021/05/09 00:57:25;;;;;;;4.82;1.77;;;9.40;99.90;;;;;;5073651;28;20181;-68
2021/05/09 00:59:52;;;;;;;4.47;1.60;;;9.40;99.90;;;;;;5069051;28;20226;-68
2021/05/09 01:02:18;;;;;;;5.40;1.70;;;9.40;99.90;;;;;;5076606;28;20216;-68
2021/05/09 01:04:46;;;;;;;5.20;1.90;;;9.40;99.90;;;;;;5073090;28;20175;-68
2021/05/09 01:07:15;;;;;;;5.07;1.60;;;9.40;99.90;;;;;;5087377;28;20254;-69
2021/05/09 01:09:41;;;;;;;5.03;1.10;;;9.30;99.90;;;;;;5087030;28;20193;-68
2021/05/09 01:12:11;;;;;;;5.30;1.67;;;9.30;99.90;;;;;;5089364;28;20176;-68
2021/05/09 01:14:37;;;;;;;4.75;1.63;;;9.30;99.90;;;;;;5086681;28;20316;-68
2021/05/09 01:17:03;;;;;;;4.55;1.15;;;9.30;99.90;;;;;;5088878;28;20179;-68
2021/05/09 01:19:29;;;;;;;4.88;1.48;;;9.30;99.90;;;;;;5088639;28;20194;-69
2021/05/09 01:21:55;;;;;;;5.00;1.40;;;9.20;99.90;;;;;;5083469;28;20236;-68
2021/05/09 01:24:21;;;;;;;4.50;1.40;;;9.20;99.90;;;;;;5072823;28;20423;-68
2021/05/09 01:26:46;;;;;;;6.17;1.87;;;9.20;99.90;;;;;;5068614;28;20299;-68
2021/05/09 01:29:12;;;;;;;5.50;1.97;;;9.10;99.90;;;;;;5077184;28;20313;-68
2021/05/09 01:31:38;;;;;;;4.97;1.50;;;9.10;99.90;;;;;;5068852;28;20632;-69
2021/05/09 01:34:04;;;;;;;4.90;1.63;;;9.10;99.90;;;;;;5079556;28;20169;-69
2021/05/09 01:36:29;;;;;;;4.97;1.60;;;9.00;99.90;;;;;;5088805;28;20227;-69
2021/05/09 01:38:55;;;;;;;4.87;1.80;;;9.00;99.90;;;;;;5076771;28;20552;-69
2021/05/09 01:41:21;;;;;;;5.37;1.27;;;9.00;99.90;;;;;;5068660;28;20216;-68
2021/05/09 01:43:47;;;;;;;4.40;1.08;;;9.00;99.90;;;;;;5080639;28;20369;-68
2021/05/09 01:46:13;;;;;;;4.90;1.10;;;9.00;99.90;;;;;;5088439;28;20229;-68
2021/05/09 01:48:38;;;;;;;4.40;1.00;;;9.10;99.90;;;;;;5077434;28;20433;-68
2021/05/09 01:51:04;;;;;;;5.03;1.07;;;9.00;99.90;;;;;;5068286;28;20176;-69
2021/05/09 01:53:30;;;;;;;5.27;1.70;;;9.00;99.90;;;;;;5077250;28;20171;-68
2021/05/09 01:55:55;;;;;;;6.40;1.87;;;9.00;99.90;;;;;;5087737;28;20294;-68
2021/05/09 01:58:21;;;;;;;6.30;1.70;;;9.00;99.90;;;;;;5082840;28;20229;-69
2021/05/09 02:00:47;;;;;;;5.00;1.30;;;9.00;99.90;;;;;;5077366;28;20205;-68
2021/05/09 02:03:13;;;;;;;4.27;0.97;;;8.90;99.90;;;;;;5073830;28;20181;-68
2021/05/09 02:05:38;;;;;;;4.50;1.30;;;8.90;99.90;;;;;;5088222;28;20168;-69
2021/05/09 02:08:04;;;;;;;6.20;1.10;;;8.90;99.90;;;;;;5083942;28;20433;-68
2021/05/09 02:10:30;;;;;;;5.37;1.77;;;8.80;99.90;;;;;;5068305;28;20251;-68
2021/05/09 02:12:56;;;;;;;6.30;1.67;;;8.80;99.90;;;;;;5069884;28;20170;-68
2021/05/09 02:15:21;;;;;;;5.33;1.17;;;8.80;99.90;;;;;;5088106;28;20192;-68
2021/05/09 02:17:47;;;;;;;4.47;0.93;;;8.80;99.90;;;;;;5084069;28;20168;-68
2021/05/09 02:20:13;;;;;;;4.97;1.07;;;8.80;99.90;;;;;;5067941;28;20177;-68
2021/05/09 02:22:38;;;;;;;7.25;2.97;;;8.90;99.90;;;;;;5077368;28;20166;-67
2021/05/09 02:25:05;;;;;;;5.33;1.50;;;8.70;99.90;;;;;;5068021;28;20228;-68
2021/05/09 02:27:31;;;;;;;4.70;1.67;;;8.70;99.90;;;;;;5067717;28;20166;-69
2021/05/09 02:29:57;;;;;;;5.00;1.33;;;8.70;99.90;;;;;;5087818;28;20188;-68
2021/05/09 02:32:23;;;;;;;4.88;1.00;;;8.60;99.90;;;;;;5087841;28;20396;-67
2021/05/09 02:34:48;;;;;;;4.80;1.30;;;8.60;99.90;;;;;;5069034;28;20187;-67
2021/05/09 02:37:14;;;;;;;5.37;1.57;;;8.70;99.90;;;;;;5067482;28;20169;-68
2021/05/09 02:39:40;;;;;;;5.03;1.20;;;8.70;99.90;;;;;;5085844;28;20220;-68
2021/05/09 02:42:06;;;;;;;7.03;1.67;;;8.70;99.90;;;;;;5086841;28;20278;-68
2021/05/09 02:44:31;;;;;;;4.40;0.93;;;8.80;99.90;;;;;;5070717;28;20501;-68
2021/05/09 02:46:57;;;;;;;6.77;2.90;;;8.80;99.90;;;;;;5067283;28;20194;-68
2021/05/09 02:49:23;;;;;;;4.63;1.17;;;8.80;99.90;;;;;;5081952;28;20447;-67
2021/05/09 02:51:49;;;;;;;4.30;0.80;;;8.90;99.90;;;;;;5068115;28;20407;-68
2021/05/09 02:54:14;;;;;;;4.30;0.90;;;8.90;99.90;;;;;;5081883;28;20173;-68
2021/05/09 02:56:40;;;;;;;4.90;1.00;;;8.90;99.90;;;;;;5087205;28;20372;-68
2021/05/09 02:59:05;;;;;;;6.37;1.43;;;8.90;99.90;;;;;;5084329;28;20275;-68
2021/05/09 03:01:31;;;;;;;4.63;1.03;;;8.90;99.90;;;;;;5087235;28;20214;-68
2021/05/09 03:03:57;;;;;;;4.50;1.20;;;8.90;99.90;;;;;;5086786;28;20189;-68
2021/05/09 03:06:22;;;;;;;4.40;0.90;;;8.90;99.90;;;;;;5087038;28;20166;-68
2021/05/09 03:08:48;;;;;;;4.50;1.00;;;8.90;99.90;;;;;;5077711;28;20194;-68
2021/05/09 03:11:13;;;;;;;4.70;0.90;;;8.80;99.90;;;;;;5067193;28;20188;-68
2021/05/09 03:13:39;;;;;;;5.13;0.93;;;8.80;99.90;;;;;;5067453;28;20182;-68
2021/05/09 03:16:05;;;;;;;4.03;0.60;;;8.80;99.90;;;;;;5066819;28;20208;-68
2021/05/09 03:18:30;;;;;;;4.20;0.60;;;8.80;99.90;;;;;;5068077;28;20238;-68
2021/05/09 03:20:56;;;;;;;4.30;0.90;;;8.80;99.90;;;;;;5067023;28;20248;-68
2021/05/09 03:23:22;;;;;;;5.82;1.35;;;8.80;99.90;;;;;;5070860;28;20175;-68
2021/05/09 03:25:48;;;;;;;5.33;1.07;;;8.80;99.90;;;;;;5086897;28;20179;-68
2021/05/09 03:28:14;;;;;;;4.70;1.10;;;8.90;99.90;;;;;;5084350;28;20450;-68
2021/05/09 03:30:40;;;;;;;4.60;1.38;;;8.90;99.90;;;;;;5066963;28;20187;-67
2021/05/09 03:33:06;;;;;;;4.57;1.03;;;8.90;99.90;;;;;;5070640;28;20196;-68
2021/05/09 03:35:34;;;;;;;4.80;1.00;;;8.90;99.90;;;;;;5087031;28;20472;-68
2021/05/09 03:37:59;;;;;;;4.95;1.05;;;8.90;99.90;;;;;;5071130;28;20386;-68
2021/05/09 03:40:26;;;;;;;4.70;1.47;;;8.90;99.90;;;;;;5086835;28;20188;-68
2021/05/09 03:42:52;;;;;;;4.95;0.85;;;8.80;99.90;;;;;;5067896;28;20279;-68
2021/05/09 03:45:17;;;;;;;4.80;1.23;;;8.80;99.90;;;;;;5066815;28;20184;-68
2021/05/09 03:47:43;;;;;;;4.23;0.80;;;8.80;99.90;;;;;;5083144;28;20494;-68
2021/05/09 03:50:09;;;;;;;4.60;1.17;;;8.80;99.90;;;;;;5086906;28;20165;-68
2021/05/09 03:52:35;;;;;;;4.80;1.20;;;8.80;99.90;;;;;;5071277;28;20177;-66
2021/05/09 03:55:01;;;;;;;8.40;1.60;;;8.80;99.90;;;;;;5068876;28;20320;-66
2021/05/09 03:57:26;;;;;;;5.27;1.47;;;8.80;99.90;;;;;;5086399;28;20175;-67
2021/05/09 03:59:53;;;;;;;4.90;1.00;;;8.90;99.90;;;;;;5079300;28;20217;-67
2021/05/09 04:02:19;;;;;;;4.60;0.98;;;8.80;99.90;;;;;;5088702;28;20429;-67
2021/05/09 04:04:44;;;;;;;4.82;1.13;;;8.80;99.90;;;;;;5090770;28;20210;-67
2021/05/09 04:07:10;;;;;;;4.70;0.93;;;8.90;99.90;;;;;;5070946;28;20165;-66
2021/05/09 04:09:36;;;;;;;5.00;1.20;;;8.90;99.90;;;;;;5070370;28;20242;-67
2021/05/09 04:12:02;;;;;;;4.87;0.93;;;8.90;99.90;;;;;;5087631;28;20186;-67
2021/05/09 04:14:28;;;;;;;4.75;1.02;;;8.90;99.90;;;;;;5090601;28;20172;-67
2021/05/09 04:16:54;;;;;;;5.18;1.23;;;8.90;99.90;;;;;;5088865;28;20172;-66
2021/05/09 04:19:19;;;;;;;5.03;1.47;;;9.00;99.90;;;;;;5090341;28;20185;-67
2021/05/09 04:21:45;;;;;;;4.13;0.90;;;9.00;99.90;;;;;;5076086;28;20290;-67
2021/05/09 04:24:11;;;;;;;4.60;0.90;;;9.10;99.90;;;;;;5087290;28;20210;-67
2021/05/09 04:26:36;;;;;;;4.70;0.90;;;9.10;99.90;;;;;;5077390;28;20180;-67
2021/05/09 04:29:02;;;;;;;4.40;1.00;;;9.20;99.90;;;;;;5070084;28;20717;-66
2021/05/09 04:31:28;;;;;;;5.00;1.30;;;9.20;99.90;;;;;;5071239;28;20436;-66
2021/05/09 04:33:54;;;;;;;6.00;1.20;;;9.30;99.90;;;;;;5069257;28;20426;-66
2021/05/09 04:36:19;;;;;;;4.60;1.30;;;9.50;99.90;;;;;;5078374;28;20253;-67
2021/05/09 04:38:45;;;;;;;5.37;1.63;;;9.70;99.90;;;;;;5074009;28;20421;-67
2021/05/09 04:41:10;;;;;;;4.70;1.43;;;9.90;99.90;;;;;;5070533;28;20201;-67
2021/05/09 04:43:38;;;;;;;5.47;1.60;;;10.10;99.90;;;;;;5069956;28;20166;-67
2021/05/09 04:46:03;;;;;;;6.18;2.03;;;10.30;99.90;;;;;;5069981;28;20179;-67
2021/05/09 04:48:29;;;;;;;5.10;1.00;;;10.60;99.90;;;;;;5069798;28;20225;-67
2021/05/09 04:50:55;;;;;;;5.60;1.67;;;10.80;99.90;;;;;;5070839;28;20169;-67
2021/05/09 04:53:25;;;;;;;13.80;1.87;;;11.00;99.90;;;;;;5069762;28;20162;-67
2021/05/09 04:55:52;;;;;;;5.25;1.55;;;11.10;99.90;;;;;;5071616;28;20178;-68
2021/05/09 04:58:18;;;;;;;4.75;1.45;;;11.20;99.90;;;;;;5089293;28;20200;-67
2021/05/09 05:00:44;;;;;;;4.77;1.30;;;11.20;99.90;;;;;;5088244;28;20241;-67
2021/05/09 05:03:09;;;;;;;4.93;1.40;;;11.30;99.90;;;;;;5069588;28;20397;-67
2021/05/09 05:05:35;;;;;;;5.17;1.13;;;11.40;99.90;;;;;;5069471;28;20308;-66
2021/05/09 05:08:01;;;;;;;5.23;1.30;;;11.50;99.90;;;;;;5088402;28;20201;-67
2021/05/09 05:10:26;;;;;;;4.90;1.30;;;11.60;99.90;;;;;;5089490;28;20389;-67
2021/05/09 05:12:52;;;;;;;5.33;1.50;;;11.60;99.90;;;;;;5082457;28;20417;-67
2021/05/09 05:15:18;;;;;;;5.50;1.60;;;11.60;99.90;;;;;;5069705;28;20184;-67
2021/05/09 05:17:43;;;;;;;4.87;1.27;;;11.70;99.90;;;;;;5084722;28;20184;-67
2021/05/09 05:20:10;;;;;;;6.00;1.93;;;11.70;99.90;;;;;;5088998;28;20164;-67
2021/05/09 05:22:35;;;;;;;5.25;1.83;;;11.80;99.90;;;;;;5074643;28;20205;-67
2021/05/09 05:25:01;;;;;;;4.60;1.90;;;11.80;99.90;;;;;;5069133;28;20174;-67
2021/05/09 05:27:27;;;;;;;4.27;1.20;;;11.90;99.90;;;;;;5081218;28;20187;-67
2021/05/09 05:29:52;;;;;;;4.00;1.27;;;12.00;99.90;;;;;;5089131;28;20405;-67
2021/05/09 05:32:18;;;;;;;5.00;1.70;;;12.20;99.90;;;;;;5078061;28;20184;-67
2021/05/09 05:34:43;;;;;;;4.27;1.40;;;12.40;99.90;;;;;;5070451;28;20161;-66
2021/05/09 05:37:09;;;;;;;4.30;1.40;;;12.60;99.90;;;;;;5079311;28;20242;-66
2021/05/09 05:39:35;;;;;;;4.57;1.40;;;12.80;99.90;;;;;;5068747;28;20197;-67
2021/05/09 05:42:00;;;;;;;5.27;1.53;;;13.00;99.90;;;;;;5075843;28;20206;-67
2021/05/09 05:44:27;;;;;;;4.53;1.83;;;13.20;99.90;;;;;;5088622;28;20190;-66
2021/05/09 05:46:54;;;;;;;4.70;1.60;;;13.40;99.90;;;;;;5081771;28;20376;-67
2021/05/09 05:49:20;;;;;;;4.53;1.20;;;13.60;99.90;;;;;;5068716;28;20437;-67
2021/05/09 05:51:46;;;;;;;4.43;1.40;;;13.80;99.90;;;;;;5072453;28;20444;-66
2021/05/09 05:54:11;;;;;;;4.70;1.13;;;13.90;99.90;;;;;;5088605;28;20501;-67
2021/05/09 05:56:37;;;;;;;4.63;1.40;;;14.00;99.90;;;;;;5086584;28;20212;-67
2021/05/09 05:59:03;;;;;;;4.83;1.60;;;14.00;99.90;;;;;;5076841;28;20206;-66
2021/05/09 06:01:29;;;;;;;4.10;1.40;;;14.00;99.90;;;;;;5068926;28;20340;-66
2021/05/09 06:03:54;;;;;;;4.80;1.57;;;14.10;99.90;;;;;;5088474;28;20407;-66
2021/05/09 06:06:20;;;;;;;3.93;1.07;;;14.10;99.90;;;;;;5075693;28;20178;-67
2021/05/09 06:08:46;;;;;;;4.40;1.27;;;14.20;99.90;;;;;;5087812;28;20199;-66
2021/05/09 06:11:11;;;;;;;4.50;1.50;;;14.40;99.90;;;;;;5086664;28;20211;-67
2021/05/09 06:13:37;;;;;;;3.70;0.90;;;14.60;99.90;;;;;;5068164;28;20429;-66
2021/05/09 06:16:03;;;;;;;4.27;1.17;;;14.80;99.90;;;;;;5067797;28;20191;-67
2021/05/09 06:18:28;;;;;;;4.20;1.27;;;14.90;99.90;;;;;;5087441;28;20452;-66
2021/05/09 06:20:55;;;;;;;3.93;1.20;;;15.00;99.90;;;;;;5082902;28;20208;-66
2021/05/09 06:23:24;;;;;;;4.40;1.13;;;15.10;99.90;;;;;;5087845;28;20207;-66
2021/05/09 06:25:50;;;;;;;3.60;1.10;;;15.30;99.90;;;;;;5070522;28;20438;-67
2021/05/09 06:28:17;;;;;;;4.80;0.93;;;15.40;99.90;;;;;;5072625;28;20440;-66
2021/05/09 06:30:43;;;;;;;5.00;1.27;;;15.50;99.90;;;;;;5072356;28;20423;-66
2021/05/09 06:33:10;;;;;;;4.93;1.70;;;15.70;99.90;;;;;;5067845;28;20434;-66
2021/05/09 06:35:38;;;;;;;4.40;1.17;;;15.90;99.90;;;;;;5084282;28;20510;-66
2021/05/09 06:38:05;;;;;;;3.70;0.90;;;16.00;99.90;;;;;;5087576;28;20486;-66
2021/05/09 06:40:30;;;;;;;4.70;1.30;;;16.30;99.60;;;;;;5071495;28;20428;-65
2021/05/09 06:42:58;;;;;;;4.03;1.27;;;16.60;98.70;;;;;;5070362;28;20438;-64
2021/05/09 06:45:28;;;;;;;3.67;1.07;;;16.90;98.20;;;;;;5067484;28;20338;-64
2021/05/09 06:47:55;;;;;;;3.53;0.77;;;17.10;97.40;;;;;;5067017;28;20428;-64
2021/05/09 06:50:22;;;;;;;3.37;0.87;;;17.40;97.30;;;;;;5047413;28;20393;-65
2021/05/09 06:52:47;;;;;;;4.10;1.27;;;17.50;96.90;;;;;;5080588;28;20484;-65
2021/05/09 06:55:13;;;;;;;4.00;1.20;;;17.80;96.20;;;;;;5074213;28;20647;-65
2021/05/09 06:57:40;;;;;;;3.90;1.13;;;17.90;96.20;;;;;;5086707;28;20366;-65
2021/05/09 07:00:10;;;;;;;3.70;1.20;;;17.90;96.70;;;;;;5069953;28;20435;-65
2021/05/09 07:02:36;;;;;;;4.20;1.27;;;17.90;96.20;;;;;;5067179;28;20480;-64
2021/05/09 07:05:03;;;;;;;4.17;1.27;;;18.00;96.20;;;;;;5083140;28;20441;-64
2021/05/09 07:07:28;;;;;;;4.20;1.10;;;18.10;96.00;;;;;;5086995;28;20377;-66
2021/05/09 07:09:54;;;;;;;5.30;1.40;;;18.30;96.20;;;;;;5072306;28;20450;-64
2021/05/09 07:12:20;;;;;;;10.87;1.27;;;18.40;95.90;;;;;;5067190;28;20376;-66
2021/05/09 07:14:47;;;;;;;3.67;1.10;;;18.60;96.00;;;;;;5079646;28;20391;-63
2021/05/09 07:17:13;;;;;;;4.00;1.60;;;18.90;96.00;;;;;;5086830;28;20171;-63
2021/05/09 07:19:39;;;;;;;4.17;1.33;;;19.10;95.30;;;;;;5075625;28;20433;-66
2021/05/09 07:22:12;;;;;;;3.80;1.30;;;19.30;94.50;;;;;;5067043;28;20470;-66
2021/05/09 07:24:37;;;;;;;5.23;1.37;;;19.60;94.50;;;;;;5078216;28;20556;-64
2021/05/09 07:27:03;;;;;;;3.70;1.10;;;20.00;93.20;;;;;;5066662;28;20412;-63
2021/05/09 07:29:29;;;;;;;3.90;1.07;;;20.60;93.00;;;;;;5081231;28;20193;-64
2021/05/09 07:31:54;;;;;;;3.53;1.00;;;21.30;91.80;;;;;;5086923;28;20419;-64
2021/05/09 07:34:20;;;;;;;5.07;1.33;;;22.10;91.60;;;;;;5068497;28;20173;-64
2021/05/09 07:36:47;;;;;;;3.90;1.10;;;23.30;90.00;;;;;;5065975;28;20201;-68
2021/05/09 07:39:12;;;;;;;4.27;1.30;;;24.50;85.60;;;;;;5080425;28;20492;-72
2021/05/09 07:41:38;;;;;;;3.30;1.10;;;25.90;82.10;;;;;;5085785;28;20471;-71
2021/05/09 07:44:05;;;;;;;3.20;1.07;;;27.00;76.80;;;;;;5072421;28;20201;-68
2021/05/09 07:46:31;;;;;;;3.10;1.20;;;27.90;70.70;;;;;;5065793;28;20188;-70
2021/05/09 07:48:57;;;;;;;3.00;1.07;;;28.50;68.60;;;;;;5067961;28;20410;-67
2021/05/09 07:51:22;;;;;;;3.13;1.30;;;29.40;63.40;;;;;;5066601;28;20237;-67
2021/05/09 07:53:48;;;;;;;2.93;1.13;;;30.10;60.90;;;;;;5067469;28;20263;-68
2021/05/09 07:56:14;;;;;;;2.70;1.07;;;31.10;58.60;;;;;;5066422;28;20197;-67
2021/05/09 07:58:40;;;;;;;3.10;1.30;;;32.00;56.20;;;;;;5074776;28;20426;-65
2021/05/09 08:01:05;;;;;;;3.47;1.40;;;32.50;54.20;;;;;;5080094;28;20201;-65
2021/05/09 08:03:31;;;;;;;3.20;1.30;;;33.20;53.80;;;;;;5079024;28;20173;-66
2021/05/09 08:05:57;;;;;;;4.70;1.13;;;34.00;51.20;;;;;;5066169;28;20177;-66
2021/05/09 08:08:30;;;;;;;2.90;1.40;;;34.40;50.50;;;;;;5071535;28;20256;-66
2021/05/09 08:10:56;;;;;;;2.77;1.20;;;34.70;49.20;;;;;;5086576;28;20205;-65
2021/05/09 08:13:22;;;;;;;3.00;1.40;;;35.00;46.90;;;;;;5081273;28;20455;-65
2021/05/09 08:15:48;;;;;;;2.67;1.20;;;35.20;45.80;;;;;;5075927;28;20165;-65
2021/05/09 08:18:13;;;;;;;2.47;1.03;;;35.80;45.10;;;;;;5083351;28;20231;-65
2021/05/09 08:20:39;;;;;;;2.63;1.20;;;35.90;43.20;;;;;;5066360;28;20158;-65
2021/05/09 08:23:05;;;;;;;2.50;1.33;;;36.00;43.50;;;;;;5075261;28;20177;-66
2021/05/09 08:25:32;;;;;;;2.57;1.10;;;36.20;42.70;;;;;;5066574;28;20264;-65
2021/05/09 08:27:57;;;;;;;2.40;1.20;;;36.20;42.80;;;;;;5076081;28;20419;-66
2021/05/09 08:30:25;;;;;;;2.53;1.50;;;36.40;42.60;;;;;;5068444;28;20471;-64
2021/05/09 08:32:51;;;;;;;2.67;1.30;;;36.70;41.30;;;;;;5067235;28;20180;-64
2021/05/09 08:35:18;;;;;;;2.20;1.10;;;36.40;41.70;;;;;;5066335;28;20667;-64
2021/05/09 08:37:44;;;;;;;2.40;1.33;;;36.40;42.40;;;;;;5072076;28;20456;-65
2021/05/09 08:40:15;;;;;;;2.60;1.10;;;36.70;40.80;;;;;;5068355;28;20423;-66
2021/05/09 08:42:42;;;;;;;2.50;1.40;;;36.70;40.70;;;;;;5074007;28;20427;-68
2021/05/09 08:45:08;;;;;;;2.43;1.20;;;36.70;40.70;;;;;;5076982;28;20390;-65
2021/05/09 08:47:41;;;;;;;3.10;1.10;;;37.20;40.80;;;;;;5073744;28;20569;-64
2021/05/09 08:50:09;;;;;;;3.00;1.40;;;37.20;40.00;;;;;;5089225;28;20449;-63
2021/05/09 08:52:36;;;;;;;4.53;1.50;;;37.50;39.80;;;;;;5083321;28;20517;-65
2021/05/09 08:55:07;;;;;;;2.30;1.10;;;38.00;39.50;;;;;;5069513;28;20432;-64
2021/05/09 08:57:33;;;;;;;2.60;1.67;;;38.40;38.90;;;;;;5070325;28;20557;-63
2021/05/09 08:59:59;;;;;;;2.23;1.13;;;38.60;37.50;;;;;;5070003;28;20428;-66
2021/05/09 09:02:26;;;;;;;2.40;1.30;;;38.60;35.40;;;;;;5073036;28;20421;-66
2021/05/09 09:04:56;;;;;;;2.60;1.63;;;39.10;35.50;;;;;;5087865;28;20305;-66
2021/05/09 09:07:23;;;;;;;2.70;1.50;;;39.90;35.10;;;;;;5086373;28;20516;-71
2021/05/09 09:09:51;;;;;;;3.00;1.70;;;40.30;35.70;;;;;;5069347;28;20428;-63
2021/05/09 09:12:18;;;;;;;2.43;1.40;;;40.70;33.20;;;;;;5070430;28;20460;-63
2021/05/09 09:14:59;;;;;;;2.20;1.07;;;40.00;32.20;;;;;;5080528;28;20509;-63
2021/05/09 09:17:25;;;;;;;3.10;1.30;;;40.10;31.40;;;;;;5070447;28;20404;-64
2021/05/09 09:20:17;;;;;;;2.40;1.37;;;40.40;31.50;;;;;;5089224;28;20426;-64
2021/05/09 09:22:49;;;;;;;2.47;1.40;;;40.60;31.50;;;;;;5077346;28;20444;-63
2021/05/09 09:25:16;;;;;;;2.70;1.60;;;40.60;30.90;;;;;;5069160;28;20404;-66
2021/05/09 09:27:43;;;;;;;2.40;1.40;;;41.00;31.60;;;;;;5079444;28;20431;-63
2021/05/09 09:30:10;;;;;;;2.30;1.33;;;41.30;30.00;;;;;;5072125;28;20540;-63
2021/05/09 09:32:35;;;;;;;2.70;1.83;;;41.40;29.50;;;;;;5078038;28;20529;-62
2021/05/09 09:35:01;;;;;;;2.30;1.40;;;41.40;29.60;;;;;;5084302;28;20524;-63
2021/05/09 09:37:32;;;;;;;3.43;1.67;;;41.30;29.30;;;;;;5077154;28;20178;-64
2021/05/09 09:40:00;;;;;;;2.50;1.37;;;41.10;29.00;;;;;;5063443;28;20301;-65
2021/05/09 09:42:40;;;;;;;2.40;1.50;;;41.00;30.00;;;;;;5074327;28;20524;-61
2021/05/09 09:45:28;;;;;;;3.43;1.50;;;41.00;28.70;;;;;;5068911;28;20423;-65
2021/05/09 09:48:02;;;;;;;2.17;1.33;;;40.90;28.80;;;;;;5078329;28;20438;-61
2021/05/09 09:50:36;;;;;;;2.40;1.40;;;40.70;28.80;;;;;;5088658;28;20478;-61
2021/05/09 09:53:22;;;;;;;2.30;1.43;;;40.40;29.20;;;;;;5077344;28;20524;-62
2021/05/09 09:56:01;;;;;;;2.50;1.30;;;40.30;30.10;;;;;;5067248;28;20499;-62
2021/05/09 09:58:39;;;;;;;2.50;1.40;;;40.10;29.60;;;;;;5073473;28;20484;-61
2021/05/09 10:01:05;;;;;;;2.33;1.40;;;40.00;29.80;;;;;;5068376;28;20505;-61
2021/05/09 10:03:31;;;;;;;2.67;2.03;;;40.20;30.00;;;;;;5081804;28;20430;-61
2021/05/09 10:05:58;;;;;;;3.60;2.50;;;40.60;30.50;;;;;;5079058;28;20170;-63
2021/05/09 10:08:25;;;;;;;2.40;1.60;;;40.90;30.50;;;;;;5067820;28;20499;-61
2021/05/09 10:10:52;;;;;;;2.40;1.50;;;41.10;29.90;;;;;;5071415;28;20455;-61
2021/05/09 10:13:19;;;;;;;3.70;2.47;;;41.20;29.00;;;;;;5068315;28;20647;-62
2021/05/09 10:15:45;;;;;;;2.40;1.70;;;40.80;28.90;;;;;;5073426;28;20532;-63
2021/05/09 10:18:13;;;;;;;2.77;2.20;;;40.30;29.10;;;;;;5088040;28;20442;-61
2021/05/09 10:20:40;;;;;;;2.43;1.63;;;40.20;29.70;;;;;;5083535;28;20440;-61
2021/05/09 10:23:07;;;;;;;2.50;1.40;;;40.30;28.70;;;;;;5068282;28;20424;-61
2021/05/09 10:25:56;;;;;;;2.47;1.43;;;39.70;29.00;;;;;;5070657;28;20533;-60
2021/05/09 10:28:39;;;;;;;2.60;1.30;;;39.00;29.60;;;;;;5087674;28;20586;-60
2021/05/09 10:31:06;;;;;;;2.60;1.20;;;38.50;30.10;;;;;;5078006;28;20555;-60
2021/05/09 10:33:38;;;;;;;2.50;1.20;;;38.00;30.20;;;;;;5082793;28;20414;-61
2021/05/09 10:36:16;;;;;;;3.17;2.07;;;37.70;30.90;;;;;;5087622;28;20407;-61
2021/05/09 10:39:11;;;;;;;2.77;1.43;;;37.50;31.50;;;;;;5081531;28;20447;-61
2021/05/09 10:41:53;;;;;;;2.63;1.30;;;37.70;31.60;;;;;;5067439;28;20415;-61
2021/05/09 10:44:37;;;;;;;2.40;1.10;;;37.90;30.00;;;;;;5077566;28;20492;-61
2021/05/09 10:47:05;;;;;;;2.50;1.27;;;37.80;30.30;;;;;;5087328;28;20494;-61
2021/05/09 10:49:31;;;;;;;2.93;1.00;;;37.70;31.10;;;;;;5075859;28;20443;-61
2021/05/09 10:51:57;;;;;;;2.50;1.20;;;37.60;30.60;;;;;;5067381;28;20501;-61
2021/05/09 10:54:24;;;;;;;2.47;1.20;;;37.50;31.10;;;;;;5077077;28;20412;-61
2021/05/09 10:56:53;;;;;;;2.40;1.20;;;37.50;30.20;;;;;;5083867;28;20180;-61
2021/05/09 10:59:20;;;;;;;2.60;1.20;;;37.30;30.40;;;;;;5072485;28;20427;-61
2021/05/09 11:02:06;;;;;;;2.47;1.23;;;37.10;30.90;;;;;;5070066;28;20415;-61
2021/05/09 11:04:47;;;;;;;2.50;1.00;;;36.60;30.40;;;;;;5087313;28;20490;-61
2021/05/09 11:07:48;;;;;;;3.17;1.10;;;35.90;32.00;;;;;;5081650;28;20516;-61
2021/05/09 11:10:39;;;;;;;2.40;0.93;;;35.10;32.30;;;;;;5026056;28;20406;-61
2021/05/09 11:13:09;;;;;;;2.80;1.37;;;34.20;33.00;;;;;;5077220;28;20431;-61
2021/05/09 11:15:35;;;;;;;2.63;1.10;;;33.40;33.00;;;;;;5068657;28;20382;-60
2021/05/09 11:18:12;;;;;;;2.73;0.97;;;32.80;34.30;;;;;;5077056;28;20446;-61
2021/05/09 11:20:51;;;;;;;2.73;0.97;;;32.10;35.00;;;;;;5086818;28;20494;-61
2021/05/09 11:23:17;;;;;;;2.87;1.17;;;31.60;35.70;;;;;;5074404;28;20406;-61
2021/05/09 11:25:42;;;;;;;3.07;1.07;;;31.20;35.40;;;;;;5066823;28;20420;-61
2021/05/09 11:28:08;;;;;;;2.80;0.90;;;30.80;35.80;;;;;;5077069;28;20192;-61
2021/05/09 11:30:35;;;;;;;2.57;1.03;;;30.40;36.20;;;;;;5086949;28;20177;-60
2021/05/09 11:33:01;;;;;;;3.67;1.23;;;30.30;37.00;;;;;;5077750;28;20328;-61
2021/05/09 11:35:38;;;;;;;2.63;1.27;;;30.10;37.40;;;;;;5074660;28;20509;-61
2021/05/09 11:38:03;;;;;;;2.40;0.90;;;30.10;37.10;;;;;;5077623;28;20587;-61
2021/05/09 11:40:29;;;;;;;2.60;1.07;;;30.10;36.30;;;;;;5066682;28;20403;-61
2021/05/09 11:42:55;;;;;;;2.83;0.93;;;30.10;38.00;;;;;;5073774;28;20170;-61
2021/05/09 11:45:25;;;;;;;2.97;1.13;;;30.00;37.90;;;;;;5086937;28;20177;-61
2021/05/09 11:47:51;;;;;;;2.73;1.10;;;30.00;36.90;;;;;;5069829;28;20333;-61
2021/05/09 11:50:18;;;;;;;2.47;0.93;;;29.90;36.70;;;;;;5074875;28;20420;-62
2021/05/09 11:52:44;;;;;;;3.30;1.10;;;29.90;37.10;;;;;;5071557;28;20208;-61
2021/05/09 11:55:14;;;;;;;3.03;1.40;;;29.90;37.90;;;;;;5066595;28;20411;-61
2021/05/09 11:57:40;;;;;;;2.40;0.63;;;29.90;37.50;;;;;;5079330;28;20425;-62
2021/05/09 12:00:12;;;;;;;2.60;1.10;;;30.00;36.00;;;;;;5066384;28;20445;-61
2021/05/09 12:02:46;;;;;;;4.97;1.30;;;30.00;39.40;;;;;;5079418;28;20285;-61
2021/05/09 12:05:17;;;;;;;3.40;1.00;;;30.10;37.50;;;;;;5087004;28;20444;-61
2021/05/09 12:07:55;;;;;;;2.37;0.93;;;30.10;36.90;;;;;;5072975;28;20560;-61
2021/05/09 12:10:24;;;;;;;2.50;1.00;;;30.10;36.90;;;;;;5066703;28;20437;-61
2021/05/09 12:13:02;;;;;;;2.60;0.93;;;30.20;37.60;;;;;;5067579;28;20427;-61
2021/05/09 12:15:31;;;;;;;6.10;1.17;;;30.30;36.80;;;;;;5074391;28;20410;-61
2021/05/09 12:17:58;;;;;;;3.10;1.43;;;30.30;37.80;;;;;;5072109;28;20378;-61
2021/05/09 12:20:31;;;;;;;2.80;1.10;;;30.30;37.90;;;;;;5066435;28;20624;-61
2021/05/09 12:23:00;;;;;;;2.53;0.80;;;30.30;37.40;;;;;;5080876;28;20639;-61
2021/05/09 12:25:32;;;;;;;2.60;1.03;;;30.40;35.60;;;;;;5090230;28;20403;-61
2021/05/09 12:28:09;;;;;;;2.37;0.83;;;30.30;36.00;;;;;;5076656;28;20646;-61
2021/05/09 12:30:34;;;;;;;2.40;0.90;;;30.20;34.80;;;;;;5070026;28;20420;-61
2021/05/09 12:33:00;;;;;;;2.70;1.20;;;30.10;36.60;;;;;;5087687;28;20407;-61
2021/05/09 12:35:26;;;;;;;2.63;1.07;;;30.10;36.90;;;;;;5088462;28;20410;-61
2021/05/09 12:37:54;;;;;;;2.50;1.23;;;30.10;37.30;;;;;;5069465;28;20168;-61
2021/05/09 12:40:29;;;;;;;2.63;1.17;;;30.00;37.50;;;;;;5069698;28;20278;-62
2021/05/09 12:43:10;;;;;;;2.50;0.90;;;30.00;37.10;;;;;;5058863;28;20504;-61
2021/05/09 12:45:43;;;;;;;2.53;1.07;;;30.00;37.10;;;;;;5070812;28;20512;-63
2021/05/09 12:48:22;;;;;;;2.50;0.93;;;30.00;36.40;;;;;;5069710;28;20439;-61
2021/05/09 12:50:49;;;;;;;2.90;1.10;;;30.00;36.50;;;;;;5071828;28;20500;-61
2021/05/09 12:53:38;;;;;;;2.80;1.27;;;30.10;36.80;;;;;;5089566;28;20401;-61